Danforth, Maine
Current Conditions -  °F | °C
As of 11:53 PM on Monday 26 Jan 2015 (Local Time) from KHUL Reporting Station
Clear Clear  
Wind Chill: -10°   Ceiling: Unl
Heat Index:   Visibility: 10mi
Dew Point: -8°   Wind: 8mph
Humidity: 60%   Direction: 20°NNE
Pressure: 30.27"   Gusts: NA
Location:  45.66°N, 67.87°W
Report Text: KHUL 270453Z AUTO 02007KT 10SM CLR M16/M22 A3027 RMK AO2 SLP263 T11611222 411171200
Loading
Personal Weather Stations






























Interactive Weather Map New forecast layout! Learn more

10-Day Weather Forecast

Advertisements
Track Severe Weather on mobile